ANA766 ROAH-RJOO
Flight info
| Callsign | ANA766 |
|---|---|
| Flight time | 1h 35m |
| Altitude | 39000 |
| Route | AMAMI Y53 MADOG Y753 IZUMI |
| Aircraft | B772/H-SDE2E3FGHIJ5LORVWXY/LB1D1 |
Departure
| Time | 2026-05-04 13:21 |
|---|---|
| Airport | Naha International Airport (ROAH) |
Arrival
| Time | 2026-05-04 14:56 |
|---|---|
| Airport | Osaka Itami International Airport (RJOO) |
| Time | Latitude | Longitude | Altitude | Speed | Heading |
|---|---|---|---|---|---|
| 2026-05-04 12:52 | 26.20719 | 127.64850 | 25 ft | 0 kts | 47° |
| 2026-05-04 13:10 | 26.20709 | 127.64840 | 25 ft | 2 kts | 31° |
| 2026-05-04 13:10 | 26.20694 | 127.64831 | 30 ft | 2 kts | 14° |
| 2026-05-04 13:10 | 26.20678 | 127.64829 | 30 ft | 2 kts | 352° |
| 2026-05-04 13:10 | 26.20662 | 127.64834 | 29 ft | 2 kts | 332° |
| 2026-05-04 13:11 | 26.20648 | 127.64844 | 29 ft | 2 kts | 315° |
| 2026-05-04 13:11 | 26.20638 | 127.64858 | 30 ft | 2 kts | 294° |
| 2026-05-04 13:11 | 26.20635 | 127.64866 | 30 ft | 1 kts | 277° |
| 2026-05-04 13:15 | 26.20635 | 127.64847 | 30 ft | 10 kts | 268° |
| 2026-05-04 13:15 | 26.20597 | 127.64769 | 26 ft | 12 kts | 215° |
| 2026-05-04 13:15 | 26.20515 | 127.64750 | 24 ft | 12 kts | 179° |
| 2026-05-04 13:15 | 26.20429 | 127.64753 | 24 ft | 13 kts | 178° |
| 2026-05-04 13:16 | 26.20342 | 127.64758 | 23 ft | 13 kts | 176° |
| 2026-05-04 13:16 | 26.20255 | 127.64764 | 23 ft | 13 kts | 178° |
| 2026-05-04 13:16 | 26.20168 | 127.64765 | 22 ft | 13 kts | 179° |
| 2026-05-04 13:16 | 26.20075 | 127.64769 | 22 ft | 14 kts | 177° |
| 2026-05-04 13:17 | 26.19961 | 127.64776 | 23 ft | 21 kts | 177° |
| 2026-05-04 13:17 | 26.19806 | 127.64784 | 23 ft | 22 kts | 177° |
| 2026-05-04 13:17 | 26.19650 | 127.64792 | 22 ft | 22 kts | 178° |
| 2026-05-04 13:17 | 26.19494 | 127.64797 | 23 ft | 22 kts | 178° |
| 2026-05-04 13:18 | 26.19338 | 127.64804 | 23 ft | 22 kts | 177° |
| 2026-05-04 13:18 | 26.19183 | 127.64813 | 24 ft | 22 kts | 177° |
| 2026-05-04 13:18 | 26.19029 | 127.64821 | 24 ft | 22 kts | 178° |
| 2026-05-04 13:18 | 26.18873 | 127.64829 | 23 ft | 22 kts | 178° |
| 2026-05-04 13:19 | 26.18718 | 127.64835 | 23 ft | 22 kts | 178° |
| 2026-05-04 13:19 | 26.18562 | 127.64841 | 21 ft | 22 kts | 178° |
| 2026-05-04 13:19 | 26.18406 | 127.64848 | 23 ft | 22 kts | 177° |
| 2026-05-04 13:19 | 26.18272 | 127.64844 | 21 ft | 17 kts | 205° |
| 2026-05-04 13:20 | 26.18243 | 127.64758 | 22 ft | 0 kts | 268° |
| 2026-05-04 13:20 | 26.18243 | 127.64746 | 20 ft | 7 kts | 268° |
| 2026-05-04 13:20 | 26.18253 | 127.64668 | 22 ft | 10 kts | 310° |
| 2026-05-04 13:21 | 26.18321 | 127.64650 | 25 ft | 13 kts | 356° |
| 2026-05-04 13:21 | 26.18628 | 127.64633 | 23 ft | 83 kts | 358° |
| 2026-05-04 13:21 | 26.19463 | 127.64588 | 57 ft | 153 kts | 358° |
| 2026-05-04 13:21 | 26.20503 | 127.64483 | 1062 ft | 140 kts | 359° |
| 2026-05-04 13:22 | 26.21512 | 127.64432 | 1963 ft | 150 kts | 2° |
| 2026-05-04 13:22 | 26.22656 | 127.64402 | 2190 ft | 178 kts | 2° |
| 2026-05-04 13:22 | 26.23987 | 127.64366 | 2388 ft | 205 kts | 2° |
| 2026-05-04 13:22 | 26.25486 | 127.64261 | 2602 ft | 228 kts | 350° |
| 2026-05-04 13:23 | 26.27014 | 127.63537 | 3010 ft | 246 kts | 335° |
| 2026-05-04 13:23 | 26.28520 | 127.62570 | 3736 ft | 251 kts | 332° |
| 2026-05-04 13:23 | 26.30053 | 127.61556 | 4376 ft | 261 kts | 332° |
| 2026-05-04 13:23 | 26.31640 | 127.60512 | 5003 ft | 270 kts | 330° |
| 2026-05-04 13:24 | 26.33294 | 127.59437 | 5548 ft | 279 kts | 328° |
| 2026-05-04 13:24 | 26.34993 | 127.58349 | 6197 ft | 287 kts | 326° |
| 2026-05-04 13:24 | 26.36742 | 127.57234 | 6911 ft | 290 kts | 326° |
| 2026-05-04 13:25 | 26.40114 | 127.54888 | 8407 ft | 279 kts | 307° |
| 2026-05-04 13:25 | 26.41053 | 127.53068 | 9112 ft | 268 kts | 280° |
| 2026-05-04 13:25 | 26.41164 | 127.51050 | 9967 ft | 259 kts | 259° |
| 2026-05-04 13:25 | 26.40683 | 127.49105 | 10499 ft | 268 kts | 244° |
| 2026-05-04 13:26 | 26.39580 | 127.47320 | 10659 ft | 294 kts | 231° |
| 2026-05-04 13:26 | 26.38194 | 127.45594 | 11154 ft | 309 kts | 230° |
| 2026-05-04 13:26 | 26.36735 | 127.43795 | 11931 ft | 316 kts | 230° |
| 2026-05-04 13:26 | 26.35101 | 127.42150 | 12705 ft | 324 kts | 215° |
| 2026-05-04 13:27 | 26.32995 | 127.41124 | 13602 ft | 337 kts | 201° |
| 2026-05-04 13:27 | 26.30629 | 127.40760 | 14467 ft | 351 kts | 187° |
| 2026-05-04 13:27 | 26.28170 | 127.40794 | 15300 ft | 357 kts | 185° |
| 2026-05-04 13:27 | 26.25670 | 127.40879 | 16119 ft | 362 kts | 184° |
| 2026-05-04 13:28 | 26.23134 | 127.40956 | 16959 ft | 366 kts | 185° |
| 2026-05-04 13:28 | 26.20566 | 127.41005 | 17771 ft | 371 kts | 186° |
| 2026-05-04 13:28 | 26.17966 | 127.41035 | 18551 ft | 376 kts | 186° |
| 2026-05-04 13:28 | 26.15341 | 127.41163 | 19151 ft | 385 kts | 177° |
| 2026-05-04 13:29 | 26.12751 | 127.42192 | 19735 ft | 409 kts | 156° |
| 2026-05-04 13:29 | 26.10523 | 127.44256 | 20418 ft | 428 kts | 135° |
| 2026-05-04 13:29 | 26.09012 | 127.47159 | 21129 ft | 444 kts | 112° |
| 2026-05-04 13:29 | 26.08511 | 127.50586 | 21786 ft | 457 kts | 89° |
| 2026-05-04 13:30 | 26.08961 | 127.54097 | 22335 ft | 462 kts | 78° |
| 2026-05-04 13:30 | 26.09689 | 127.57615 | 22869 ft | 470 kts | 76° |
| 2026-05-04 13:30 | 26.10474 | 127.61161 | 23547 ft | 475 kts | 76° |
| 2026-05-04 13:30 | 26.11239 | 127.64752 | 24177 ft | 478 kts | 77° |
| 2026-05-04 13:31 | 26.11961 | 127.68376 | 24781 ft | 482 kts | 78° |
| 2026-05-04 13:31 | 26.12641 | 127.71994 | 25355 ft | 486 kts | 79° |
| 2026-05-04 13:31 | 26.13312 | 127.75689 | 25893 ft | 490 kts | 79° |
| 2026-05-04 13:31 | 26.13983 | 127.79432 | 26462 ft | 494 kts | 79° |
| 2026-05-04 13:32 | 26.14659 | 127.83192 | 26980 ft | 498 kts | 79° |
| 2026-05-04 13:32 | 26.15345 | 127.86990 | 27491 ft | 502 kts | 79° |
| 2026-05-04 13:32 | 26.16070 | 127.90796 | 27942 ft | 502 kts | 75° |
| 2026-05-04 13:32 | 26.17461 | 127.94378 | 28224 ft | 509 kts | 56° |
| 2026-05-04 13:33 | 26.19657 | 127.97451 | 28688 ft | 507 kts | 40° |
| 2026-05-04 13:33 | 26.22429 | 127.99795 | 29189 ft | 496 kts | 26° |
| 2026-05-04 13:33 | 26.25428 | 128.01747 | 29485 ft | 502 kts | 25° |
| 2026-05-04 13:33 | 26.28475 | 128.03702 | 29854 ft | 508 kts | 25° |
| 2026-05-04 13:34 | 26.31538 | 128.05688 | 30303 ft | 511 kts | 25° |
| 2026-05-04 13:34 | 26.34605 | 128.07713 | 30686 ft | 514 kts | 26° |
| 2026-05-04 13:34 | 26.37675 | 128.09771 | 31041 ft | 517 kts | 26° |
| 2026-05-04 13:34 | 26.40761 | 128.11860 | 31353 ft | 521 kts | 26° |
| 2026-05-04 13:35 | 26.43866 | 128.13970 | 31661 ft | 525 kts | 26° |
| 2026-05-04 13:35 | 26.50142 | 128.18242 | 32246 ft | 531 kts | 26° |
| 2026-05-04 13:35 | 26.53307 | 128.20395 | 32528 ft | 534 kts | 26° |
| 2026-05-04 13:36 | 26.56491 | 128.22560 | 32797 ft | 537 kts | 26° |
| 2026-05-04 13:36 | 26.59690 | 128.24737 | 33060 ft | 540 kts | 26° |
| 2026-05-04 13:36 | 26.62901 | 128.26923 | 33307 ft | 542 kts | 25° |
| 2026-05-04 13:36 | 26.66133 | 128.29125 | 33554 ft | 545 kts | 26° |
| 2026-05-04 13:37 | 26.69260 | 128.31559 | 33766 ft | 555 kts | 37° |
| 2026-05-04 13:37 | 26.71893 | 128.34758 | 33955 ft | 562 kts | 48° |
| 2026-05-04 13:37 | 26.74269 | 128.38241 | 34215 ft | 565 kts | 50° |
| 2026-05-04 13:37 | 26.75815 | 128.40586 | 34421 ft | 565 kts | 51° |
| 2026-05-04 13:38 | 26.78953 | 128.45291 | 34855 ft | 562 kts | 49° |
| 2026-05-04 13:38 | 26.81335 | 128.48744 | 35219 ft | 560 kts | 49° |
| 2026-05-04 13:38 | 26.83751 | 128.52164 | 35544 ft | 559 kts | 48° |
| 2026-05-04 13:38 | 26.86149 | 128.55519 | 35840 ft | 558 kts | 47° |
| 2026-05-04 13:39 | 26.88571 | 128.58911 | 36147 ft | 558 kts | 48° |
| 2026-05-04 13:39 | 26.90987 | 128.62316 | 36444 ft | 558 kts | 48° |
| 2026-05-04 13:39 | 26.93557 | 128.65532 | 36672 ft | 551 kts | 37° |
| 2026-05-04 13:39 | 26.96638 | 128.67961 | 36860 ft | 535 kts | 21° |
| 2026-05-04 13:40 | 26.99934 | 128.69902 | 37030 ft | 535 kts | 20° |
| 2026-05-04 13:40 | 27.03257 | 128.71796 | 37299 ft | 535 kts | 20° |
| 2026-05-04 13:40 | 27.06563 | 128.73687 | 37635 ft | 533 kts | 20° |
| 2026-05-04 13:40 | 27.09858 | 128.75606 | 37972 ft | 532 kts | 20° |
| 2026-05-04 13:41 | 27.13126 | 128.77547 | 38272 ft | 532 kts | 21° |
| 2026-05-04 13:41 | 27.16389 | 128.79514 | 38541 ft | 532 kts | 21° |
| 2026-05-04 13:41 | 27.19640 | 128.81491 | 38794 ft | 532 kts | 21° |
| 2026-05-04 13:42 | 27.26146 | 128.85466 | 39104 ft | 533 kts | 21° |
| 2026-05-04 13:42 | 27.29405 | 128.87457 | 39139 ft | 533 kts | 21° |
| 2026-05-04 13:42 | 27.35911 | 128.91431 | 39167 ft | 532 kts | 21° |
| 2026-05-04 13:43 | 27.42408 | 128.95399 | 39177 ft | 531 kts | 21° |
| 2026-05-04 13:43 | 27.48897 | 128.99365 | 39180 ft | 530 kts | 21° |
| 2026-05-04 13:44 | 27.55379 | 129.03333 | 39182 ft | 530 kts | 21° |
| 2026-05-04 13:44 | 27.61863 | 129.07309 | 39190 ft | 530 kts | 21° |
| 2026-05-04 13:45 | 27.68348 | 129.11290 | 39185 ft | 531 kts | 21° |
| 2026-05-04 13:45 | 27.74836 | 129.15278 | 39182 ft | 531 kts | 21° |
| 2026-05-04 13:46 | 27.81285 | 129.19249 | 39185 ft | 532 kts | 21° |
| 2026-05-04 13:46 | 27.87786 | 129.23257 | 39179 ft | 533 kts | 21° |
| 2026-05-04 13:47 | 27.94301 | 129.27279 | 39184 ft | 533 kts | 21° |
| 2026-05-04 13:47 | 28.00813 | 129.31304 | 39179 ft | 534 kts | 21° |
| 2026-05-04 13:48 | 28.07331 | 129.35339 | 39175 ft | 534 kts | 21° |
| 2026-05-04 13:48 | 28.13857 | 129.39386 | 39175 ft | 535 kts | 21° |
| 2026-05-04 13:49 | 28.20382 | 129.43437 | 39150 ft | 535 kts | 21° |
| 2026-05-04 13:49 | 28.26894 | 129.47486 | 39161 ft | 534 kts | 21° |
| 2026-05-04 13:50 | 28.33412 | 129.51543 | 39160 ft | 535 kts | 21° |
| 2026-05-04 13:50 | 28.39946 | 129.55617 | 39148 ft | 537 kts | 21° |
| 2026-05-04 13:51 | 28.46481 | 129.59766 | 39140 ft | 541 kts | 24° |
| 2026-05-04 13:51 | 28.52860 | 129.64378 | 39136 ft | 545 kts | 26° |
| 2026-05-04 13:52 | 28.62349 | 129.71512 | 39147 ft | 545 kts | 26° |
| 2026-05-04 13:53 | 28.68707 | 129.76204 | 39159 ft | 545 kts | 26° |
| 2026-05-04 13:53 | 28.75083 | 129.80877 | 39162 ft | 545 kts | 26° |
| 2026-05-04 13:54 | 28.83565 | 129.87108 | 39161 ft | 545 kts | 26° |
| 2026-05-04 13:55 | 28.93121 | 129.94154 | 39162 ft | 545 kts | 26° |
| 2026-05-04 13:55 | 29.02680 | 130.01219 | 39163 ft | 546 kts | 26° |
| 2026-05-04 13:56 | 29.09054 | 130.05938 | 39163 ft | 546 kts | 26° |
| 2026-05-04 13:57 | 29.18617 | 130.13032 | 39157 ft | 546 kts | 26° |
| 2026-05-04 13:58 | 29.31372 | 130.22519 | 39162 ft | 547 kts | 26° |
| 2026-05-04 13:58 | 29.40950 | 130.29659 | 39164 ft | 548 kts | 26° |
| 2026-05-04 13:59 | 29.47336 | 130.34430 | 39157 ft | 548 kts | 26° |
| 2026-05-04 14:00 | 29.56934 | 130.41616 | 39155 ft | 549 kts | 26° |
| 2026-05-04 14:00 | 29.66485 | 130.48784 | 39161 ft | 550 kts | 26° |
| 2026-05-04 14:01 | 29.72889 | 130.53599 | 39166 ft | 550 kts | 26° |
| 2026-05-04 14:02 | 29.82503 | 130.60841 | 39162 ft | 551 kts | 26° |
| 2026-05-04 14:02 | 29.88917 | 130.65682 | 39158 ft | 551 kts | 26° |
| 2026-05-04 14:03 | 29.95338 | 130.70538 | 39153 ft | 552 kts | 26° |
| 2026-05-04 14:03 | 30.01759 | 130.75399 | 39154 ft | 552 kts | 26° |
| 2026-05-04 14:04 | 30.11399 | 130.82711 | 39161 ft | 553 kts | 26° |
| 2026-05-04 14:04 | 30.17829 | 130.87601 | 39157 ft | 554 kts | 26° |
| 2026-05-04 14:05 | 30.27486 | 130.94958 | 39151 ft | 555 kts | 26° |
| 2026-05-04 14:06 | 30.33925 | 130.99874 | 39150 ft | 555 kts | 26° |
| 2026-05-04 14:06 | 30.40373 | 131.04805 | 39137 ft | 555 kts | 26° |
| 2026-05-04 14:07 | 30.46824 | 131.09746 | 39138 ft | 556 kts | 26° |
| 2026-05-04 14:07 | 30.53273 | 131.14693 | 39142 ft | 556 kts | 26° |
| 2026-05-04 14:08 | 30.59722 | 131.19649 | 39149 ft | 556 kts | 26° |
| 2026-05-04 14:08 | 30.66172 | 131.24616 | 39146 ft | 557 kts | 26° |
| 2026-05-04 14:09 | 30.75849 | 131.32083 | 39140 ft | 557 kts | 26° |
| 2026-05-04 14:10 | 30.85530 | 131.39572 | 39148 ft | 557 kts | 26° |
| 2026-05-04 14:10 | 30.91982 | 131.44573 | 39150 ft | 557 kts | 26° |
| 2026-05-04 14:11 | 30.98438 | 131.49585 | 39144 ft | 557 kts | 26° |
| 2026-05-04 14:11 | 31.08118 | 131.57115 | 39144 ft | 558 kts | 26° |
| 2026-05-04 14:12 | 31.14573 | 131.62148 | 39144 ft | 558 kts | 26° |
| 2026-05-04 14:13 | 31.24253 | 131.69712 | 39152 ft | 559 kts | 26° |
| 2026-05-04 14:13 | 31.30715 | 131.74770 | 39146 ft | 559 kts | 26° |
| 2026-05-04 14:14 | 31.37176 | 131.79838 | 39147 ft | 560 kts | 26° |
| 2026-05-04 14:14 | 31.46882 | 131.87471 | 39139 ft | 560 kts | 26° |
| 2026-05-04 14:15 | 31.59834 | 131.97688 | 39131 ft | 561 kts | 26° |
| 2026-05-04 14:16 | 31.69548 | 132.05374 | 39136 ft | 562 kts | 26° |
| 2026-05-04 14:17 | 31.79268 | 132.13084 | 39141 ft | 562 kts | 26° |
| 2026-05-04 14:18 | 31.88989 | 132.20815 | 39136 ft | 563 kts | 26° |
| 2026-05-04 14:19 | 32.01960 | 132.31164 | 39131 ft | 563 kts | 26° |
| 2026-05-04 14:19 | 32.08402 | 132.36455 | 39126 ft | 569 kts | 32° |
| 2026-05-04 14:20 | 32.14107 | 132.43069 | 39134 ft | 581 kts | 45° |
| 2026-05-04 14:20 | 32.18736 | 132.50949 | 39129 ft | 587 kts | 56° |
| 2026-05-04 14:21 | 32.25052 | 132.63354 | 39131 ft | 588 kts | 56° |
| 2026-05-04 14:21 | 32.29322 | 132.71598 | 39130 ft | 588 kts | 56° |
| 2026-05-04 14:22 | 32.33637 | 132.79819 | 39126 ft | 589 kts | 55° |
| 2026-05-04 14:22 | 32.37955 | 132.88053 | 39127 ft | 589 kts | 56° |
| 2026-05-04 14:23 | 32.44412 | 133.00435 | 39125 ft | 589 kts | 56° |
| 2026-05-04 14:24 | 32.48708 | 133.08704 | 39128 ft | 590 kts | 56° |
| 2026-05-04 14:24 | 32.53001 | 133.16982 | 39126 ft | 590 kts | 56° |
| 2026-05-04 14:25 | 32.57291 | 133.25273 | 39119 ft | 590 kts | 56° |
| 2026-05-04 14:25 | 32.63719 | 133.37732 | 39119 ft | 590 kts | 56° |
| 2026-05-04 14:26 | 32.67978 | 133.46065 | 39115 ft | 591 kts | 57° |
| 2026-05-04 14:26 | 32.72167 | 133.54461 | 39108 ft | 591 kts | 57° |
| 2026-05-04 14:27 | 32.76350 | 133.62866 | 39107 ft | 591 kts | 57° |
| 2026-05-04 14:27 | 32.80539 | 133.71264 | 39111 ft | 591 kts | 57° |
| 2026-05-04 14:28 | 32.84721 | 133.79679 | 39111 ft | 591 kts | 57° |
| 2026-05-04 14:28 | 32.88883 | 133.88115 | 39103 ft | 591 kts | 57° |
| 2026-05-04 14:29 | 32.97193 | 134.05009 | 39101 ft | 591 kts | 58° |
| 2026-05-04 14:30 | 33.01314 | 134.13408 | 39102 ft | 591 kts | 58° |
| 2026-05-04 14:30 | 33.05871 | 134.21605 | 39109 ft | 587 kts | 47° |
| 2026-05-04 14:31 | 33.08493 | 134.25316 | 39112 ft | 584 kts | 43° |
| 2026-05-04 14:31 | 33.14255 | 134.31899 | 38950 ft | 564 kts | 34° |
| 2026-05-04 14:32 | 33.20191 | 134.37863 | 36081 ft | 556 kts | 33° |
| 2026-05-04 14:32 | 33.23186 | 134.40837 | 34223 ft | 563 kts | 35° |
| 2026-05-04 14:32 | 33.26203 | 134.43864 | 32072 ft | 569 kts | 35° |
| 2026-05-04 14:32 | 33.29189 | 134.46902 | 30294 ft | 571 kts | 36° |
| 2026-05-04 14:33 | 33.32180 | 134.49986 | 30052 ft | 555 kts | 36° |
| 2026-05-04 14:33 | 33.35050 | 134.52953 | 29463 ft | 551 kts | 36° |
| 2026-05-04 14:33 | 33.37974 | 134.55973 | 28866 ft | 546 kts | 36° |
| 2026-05-04 14:33 | 33.40805 | 134.58893 | 28289 ft | 542 kts | 36° |
| 2026-05-04 14:34 | 33.43654 | 134.61830 | 27727 ft | 538 kts | 35° |
| 2026-05-04 14:34 | 33.46482 | 134.64747 | 27151 ft | 534 kts | 35° |
| 2026-05-04 14:34 | 33.49288 | 134.67643 | 26591 ft | 531 kts | 35° |
| 2026-05-04 14:34 | 33.52071 | 134.70518 | 26023 ft | 527 kts | 35° |
| 2026-05-04 14:35 | 33.54833 | 134.73375 | 25458 ft | 523 kts | 36° |
| 2026-05-04 14:35 | 33.57585 | 134.76214 | 24885 ft | 519 kts | 34° |
| 2026-05-04 14:35 | 33.60413 | 134.78853 | 24300 ft | 512 kts | 28° |
| 2026-05-04 14:35 | 33.63386 | 134.81132 | 23727 ft | 504 kts | 24° |
| 2026-05-04 14:36 | 33.65410 | 134.82589 | 23274 ft | 501 kts | 24° |
| 2026-05-04 14:36 | 33.68398 | 134.84719 | 22654 ft | 496 kts | 24° |
| 2026-05-04 14:36 | 33.71306 | 134.86807 | 22086 ft | 490 kts | 24° |
| 2026-05-04 14:36 | 33.74195 | 134.88910 | 21508 ft | 473 kts | 25° |
| 2026-05-04 14:37 | 33.76940 | 134.90925 | 20984 ft | 453 kts | 25° |
| 2026-05-04 14:37 | 33.79588 | 134.92865 | 20482 ft | 441 kts | 25° |
| 2026-05-04 14:37 | 33.82257 | 134.94813 | 20011 ft | 456 kts | 25° |
| 2026-05-04 14:37 | 33.85009 | 134.96823 | 19499 ft | 470 kts | 26° |
| 2026-05-04 14:38 | 33.87832 | 134.98890 | 19023 ft | 481 kts | 26° |
| 2026-05-04 14:38 | 33.90689 | 135.01002 | 18623 ft | 480 kts | 26° |
| 2026-05-04 14:38 | 33.93418 | 135.03056 | 17494 ft | 447 kts | 27° |
| 2026-05-04 14:38 | 33.96013 | 135.05023 | 16124 ft | 433 kts | 27° |
| 2026-05-04 14:39 | 33.98511 | 135.06909 | 15099 ft | 412 kts | 26° |
| 2026-05-04 14:39 | 34.00888 | 135.08698 | 14176 ft | 393 kts | 26° |
| 2026-05-04 14:39 | 34.03173 | 135.10407 | 13120 ft | 380 kts | 26° |
| 2026-05-04 14:40 | 34.07490 | 135.13624 | 12072 ft | 346 kts | 25° |
| 2026-05-04 14:40 | 34.09446 | 135.15089 | 11686 ft | 317 kts | 25° |
| 2026-05-04 14:40 | 34.11256 | 135.16442 | 11301 ft | 297 kts | 24° |
| 2026-05-04 14:40 | 34.12975 | 135.17722 | 10937 ft | 284 kts | 24° |
| 2026-05-04 14:41 | 34.14679 | 135.18982 | 10604 ft | 291 kts | 24° |
| 2026-05-04 14:41 | 34.16412 | 135.20267 | 10258 ft | 292 kts | 24° |
| 2026-05-04 14:41 | 34.19851 | 135.22839 | 9512 ft | 285 kts | 25° |
| 2026-05-04 14:42 | 34.23119 | 135.25340 | 8875 ft | 270 kts | 26° |
| 2026-05-04 14:42 | 34.24675 | 135.26607 | 8659 ft | 270 kts | 27° |
| 2026-05-04 14:42 | 34.26228 | 135.27880 | 8430 ft | 269 kts | 27° |
| 2026-05-04 14:43 | 34.27769 | 135.29145 | 8193 ft | 267 kts | 27° |
| 2026-05-04 14:43 | 34.29302 | 135.30399 | 7958 ft | 265 kts | 27° |
| 2026-05-04 14:43 | 34.30824 | 135.31644 | 7744 ft | 263 kts | 27° |
| 2026-05-04 14:43 | 34.32336 | 135.32879 | 7529 ft | 262 kts | 27° |
| 2026-05-04 14:44 | 34.33841 | 135.34108 | 7295 ft | 261 kts | 27° |
| 2026-05-04 14:44 | 34.35342 | 135.35334 | 7093 ft | 259 kts | 28° |
| 2026-05-04 14:44 | 34.36328 | 135.36141 | 6929 ft | 258 kts | 28° |
| 2026-05-04 14:44 | 34.37828 | 135.37368 | 6726 ft | 256 kts | 28° |
| 2026-05-04 14:45 | 34.39300 | 135.38571 | 6497 ft | 254 kts | 28° |
| 2026-05-04 14:45 | 34.40758 | 135.39763 | 6254 ft | 252 kts | 28° |
| 2026-05-04 14:45 | 34.42209 | 135.40950 | 6030 ft | 251 kts | 29° |
| 2026-05-04 14:45 | 34.43641 | 135.42141 | 5786 ft | 247 kts | 33° |
| 2026-05-04 14:46 | 34.44744 | 135.43750 | 5530 ft | 253 kts | 56° |
| 2026-05-04 14:46 | 34.45593 | 135.45649 | 5331 ft | 259 kts | 56° |
| 2026-05-04 14:46 | 34.46466 | 135.47571 | 5108 ft | 261 kts | 56° |
| 2026-05-04 14:46 | 34.47335 | 135.49479 | 4886 ft | 257 kts | 56° |
| 2026-05-04 14:47 | 34.48193 | 135.51358 | 4641 ft | 253 kts | 56° |
| 2026-05-04 14:47 | 34.49042 | 135.53212 | 4404 ft | 250 kts | 56° |
| 2026-05-04 14:47 | 34.49884 | 135.55048 | 4151 ft | 248 kts | 56° |
| 2026-05-04 14:47 | 34.50723 | 135.56872 | 3916 ft | 247 kts | 56° |
| 2026-05-04 14:48 | 34.51556 | 135.58687 | 3695 ft | 247 kts | 56° |
| 2026-05-04 14:48 | 34.52381 | 135.60484 | 3547 ft | 246 kts | 56° |
| 2026-05-04 14:48 | 34.53213 | 135.62295 | 3503 ft | 246 kts | 56° |
| 2026-05-04 14:48 | 34.54083 | 135.64051 | 3448 ft | 239 kts | 45° |
| 2026-05-04 14:49 | 34.55411 | 135.65165 | 3454 ft | 230 kts | 15° |
| 2026-05-04 14:49 | 34.56923 | 135.65454 | 3462 ft | 213 kts | 360° |
| 2026-05-04 14:49 | 34.58366 | 135.65473 | 3440 ft | 202 kts | 358° |
| 2026-05-04 14:49 | 34.59767 | 135.65360 | 3453 ft | 204 kts | 342° |
| 2026-05-04 14:50 | 34.60965 | 135.64494 | 3457 ft | 200 kts | 322° |
| 2026-05-04 14:50 | 34.62046 | 135.63425 | 3460 ft | 199 kts | 321° |
| 2026-05-04 14:50 | 34.63040 | 135.62334 | 3445 ft | 186 kts | 318° |
| 2026-05-04 14:50 | 34.63936 | 135.61277 | 3429 ft | 173 kts | 317° |
| 2026-05-04 14:51 | 34.64774 | 135.60271 | 3453 ft | 164 kts | 317° |
| 2026-05-04 14:51 | 34.65551 | 135.59329 | 3327 ft | 152 kts | 317° |
| 2026-05-04 14:51 | 34.66256 | 135.58476 | 3131 ft | 135 kts | 317° |
| 2026-05-04 14:51 | 34.66883 | 135.57716 | 2963 ft | 122 kts | 317° |
| 2026-05-04 14:52 | 34.67478 | 135.56997 | 2811 ft | 122 kts | 317° |
| 2026-05-04 14:52 | 34.68087 | 135.56261 | 2635 ft | 125 kts | 316° |
| 2026-05-04 14:52 | 34.68705 | 135.55513 | 2471 ft | 126 kts | 316° |
| 2026-05-04 14:52 | 34.69320 | 135.54767 | 2275 ft | 125 kts | 316° |
| 2026-05-04 14:53 | 34.69938 | 135.54016 | 2119 ft | 126 kts | 316° |
| 2026-05-04 14:53 | 34.70228 | 135.53663 | 2036 ft | 127 kts | 316° |
| 2026-05-04 14:53 | 34.70509 | 135.53324 | 1947 ft | 127 kts | 316° |
| 2026-05-04 14:53 | 34.71141 | 135.52559 | 1782 ft | 129 kts | 316° |
| 2026-05-04 14:54 | 34.71773 | 135.51793 | 1598 ft | 128 kts | 317° |
| 2026-05-04 14:54 | 34.72405 | 135.51027 | 1410 ft | 128 kts | 315° |
| 2026-05-04 14:54 | 34.73037 | 135.50255 | 1255 ft | 129 kts | 315° |
| 2026-05-04 14:54 | 34.73675 | 135.49474 | 1065 ft | 130 kts | 316° |
| 2026-05-04 14:55 | 34.74311 | 135.48722 | 894 ft | 128 kts | 314° |
| 2026-05-04 14:55 | 34.74927 | 135.47936 | 708 ft | 129 kts | 316° |
| 2026-05-04 14:55 | 34.75569 | 135.47171 | 574 ft | 128 kts | 314° |
| 2026-05-04 14:55 | 34.76200 | 135.46422 | 369 ft | 125 kts | 313° |
| 2026-05-04 14:56 | 34.76817 | 135.45676 | 198 ft | 127 kts | 314° |
| 2026-05-04 14:56 | 34.77438 | 135.44933 | 48 ft | 124 kts | 310° |
| 2026-05-04 14:56 | 34.77970 | 135.44276 | 47 ft | 88 kts | 315° |
| 2026-05-04 14:56 | 34.78289 | 135.43888 | 47 ft | 41 kts | 314° |
| 2026-05-04 14:57 | 34.78511 | 135.43725 | 46 ft | 33 kts | 340° |
| 2026-05-04 14:57 | 34.78679 | 135.43698 | 46 ft | 15 kts | 14° |
| 2026-05-04 14:57 | 34.78690 | 135.43702 | 46 ft | 0 kts | 17° |
| 2026-05-04 14:58 | 34.78734 | 135.43728 | 46 ft | 13 kts | 34° |
| 2026-05-04 14:58 | 34.78815 | 135.43817 | 46 ft | 17 kts | 46° |
| 2026-05-04 14:58 | 34.78874 | 135.43926 | 46 ft | 15 kts | 85° |
| 2026-05-04 14:59 | 34.78821 | 135.44029 | 46 ft | 15 kts | 135° |
| 2026-05-04 14:59 | 34.78764 | 135.44115 | 46 ft | 12 kts | 100° |
| 2026-05-04 14:59 | 34.78865 | 135.44225 | 45 ft | 0 kts | 29° |